createdAt,value
2023-01-19T00:00:31.306Z,94929.76
2023-01-19T00:03:18.288Z,94938.31
2023-01-19T00:05:45.276Z,94934.21
2023-01-19T00:08:15.513Z,94937.30
2023-01-19T00:10:48.085Z,94936.27
2023-01-19T00:13:15.658Z,94935.17
2023-01-19T00:15:43.309Z,94935.08
2023-01-19T00:18:11.100Z,94933.69
2023-01-19T00:20:41.763Z,94932.91
2023-01-19T00:23:08.916Z,94927.39
2023-01-19T00:25:41.806Z,94930.13
2023-01-19T00:28:11.164Z,94947.95
2023-01-19T00:30:39.031Z,94932.95
2023-01-19T00:33:06.031Z,94929.34
2023-01-19T00:35:34.201Z,94929.17
2023-01-19T00:38:01.757Z,94932.10
2023-01-19T00:40:28.823Z,94940.20
2023-01-19T00:42:55.791Z,94941.66
2023-01-19T00:45:24.121Z,94943.16
2023-01-19T00:47:56.510Z,94941.11
2023-01-19T00:50:25.008Z,94938.67
2023-01-19T00:52:53.676Z,94922.07
2023-01-19T00:55:20.897Z,94924.19
2023-01-19T00:57:48.447Z,94932.51
2023-01-19T01:00:19.200Z,94929.23
2023-01-19T01:02:47.828Z,94921.06
2023-01-19T01:05:15.901Z,94916.24
2023-01-19T01:07:46.498Z,94913.75
2023-01-19T01:10:14.986Z,94894.34
2023-01-19T01:12:54.857Z,94895.76
2023-01-19T01:15:25.969Z,94894.08
2023-01-19T01:17:53.327Z,94887.33
2023-01-19T01:20:22.998Z,94885.66
2023-01-19T01:22:52.075Z,94879.42
2023-01-19T01:25:22.032Z,94876.42
2023-01-19T01:27:49.704Z,94876.23
2023-01-19T01:30:17.212Z,94874.85
2023-01-19T01:32:44.356Z,94871.05
2023-01-19T01:35:12.619Z,94868.61
2023-01-19T01:37:40.061Z,94870.75
2023-01-19T01:40:08.699Z,94866.98
2023-01-19T01:42:35.705Z,94859.34
2023-01-19T01:45:20.748Z,94857.32
2023-01-19T01:47:49.382Z,94854.64
2023-01-19T01:50:22.604Z,94851.58
2023-01-19T01:53:06.910Z,94855.17
2023-01-19T01:55:40.279Z,94863.62
2023-01-19T01:58:10.039Z,94868.54
2023-01-19T02:00:57.114Z,94868.89
2023-01-19T02:03:25.742Z,94864.89
2023-01-19T02:05:56.982Z,94861.75
2023-01-19T02:09:06.157Z,94846.85
2023-01-19T02:11:53.709Z,94841.91
2023-01-19T02:14:21.199Z,94841.10
2023-01-19T02:16:48.268Z,94842.88
2023-01-19T02:19:30.366Z,94829.97
2023-01-19T02:22:05.965Z,94820.33
2023-01-19T02:24:33.262Z,94825.36
2023-01-19T02:27:00.755Z,94828.82
2023-01-19T02:29:28.295Z,94826.91
2023-01-19T02:31:56.738Z,94833.73
2023-01-19T02:34:23.683Z,94843.22
2023-01-19T02:36:57.720Z,94852.08
2023-01-19T02:39:40.952Z,94852.60
2023-01-19T02:42:23.570Z,94850.85
2023-01-19T02:44:54.487Z,94847.06
2023-01-19T02:47:21.625Z,94853.03
2023-01-19T02:49:59.714Z,94855.10
2023-01-19T02:52:27.686Z,94847.38
2023-01-19T02:55:06.662Z,94837.05
2023-01-19T02:57:48.487Z,94837.95
2023-01-19T03:00:36.741Z,94836.56
2023-01-19T03:03:19.006Z,94830.83
2023-01-19T03:06:21.629Z,94834.17
2023-01-19T03:09:03.844Z,94833.25
2023-01-19T03:11:39.216Z,94823.27
2023-01-19T03:14:18.935Z,94825.96
2023-01-19T03:16:50.830Z,94820.19
2023-01-19T03:19:23.165Z,94823.30
2023-01-19T03:22:00.426Z,94821.21
2023-01-19T03:24:30.996Z,94832.23
2023-01-19T03:27:06.544Z,94826.29
2023-01-19T03:29:36.424Z,94826.55
2023-01-19T03:32:09.935Z,94825.76
2023-01-19T03:34:40.292Z,94822.91
2023-01-19T03:37:09.845Z,94826.71
2023-01-19T03:39:37.151Z,94826.35
2023-01-19T03:42:08.879Z,94832.37
2023-01-19T03:44:39.729Z,94838.66
2023-01-19T03:47:08.910Z,94835.31
2023-01-19T03:49:37.335Z,94843.91
2023-01-19T03:52:04.719Z,94846.41
2023-01-19T03:54:31.788Z,94841.82
2023-01-19T03:56:58.690Z,94844.54
2023-01-19T03:59:25.702Z,94841.48
2023-01-19T04:01:52.695Z,94848.02
2023-01-19T04:04:19.769Z,94846.66
2023-01-19T04:06:46.944Z,94847.98
2023-01-19T04:09:13.914Z,94840.71
2023-01-19T04:11:40.882Z,94826.20
2023-01-19T04:14:07.835Z,94827.04
2023-01-19T04:16:34.987Z,94822.20
2023-01-19T04:19:01.964Z,94822.39
2023-01-19T04:21:28.934Z,94823.04
2023-01-19T04:23:55.951Z,94823.94
2023-01-19T04:26:23.464Z,94821.94
2023-01-19T04:28:50.435Z,94824.45
2023-01-19T04:31:18.804Z,94827.70
2023-01-19T04:33:45.877Z,94827.03
2023-01-19T04:36:12.809Z,94830.77
2023-01-19T04:38:39.750Z,94827.84
2023-01-19T04:41:06.742Z,94829.88
2023-01-19T04:43:33.922Z,94835.16
2023-01-19T04:46:01.046Z,94842.98
2023-01-19T04:48:28.088Z,94860.30
2023-01-19T04:50:55.028Z,94866.04
2023-01-19T04:53:22.203Z,94863.92
2023-01-19T04:55:54.445Z,94862.73
2023-01-19T04:58:21.688Z,94867.25
2023-01-19T05:00:50.542Z,94873.36
2023-01-19T05:03:18.830Z,94879.52
2023-01-19T05:05:45.959Z,94882.60
2023-01-19T05:08:12.904Z,94877.73
2023-01-19T05:10:39.831Z,94879.73
2023-01-19T05:13:06.847Z,94876.23
2023-01-19T05:15:33.806Z,94879.92
2023-01-19T05:18:00.874Z,94880.85
2023-01-19T05:20:27.844Z,94886.89
2023-01-19T05:22:54.884Z,94894.75
2023-01-19T05:25:21.868Z,94908.52
2023-01-19T05:27:48.959Z,94919.77
2023-01-19T05:30:16.390Z,94919.55
2023-01-19T05:32:43.776Z,94920.41
2023-01-19T05:35:12.879Z,94923.90
2023-01-19T05:37:40.496Z,94923.91
2023-01-19T05:40:08.640Z,94928.83
2023-01-19T05:42:36.497Z,94931.97
2023-01-19T05:45:04.647Z,94934.27
2023-01-19T05:47:31.811Z,94936.86
2023-01-19T05:49:58.732Z,94940.24
2023-01-19T05:52:25.707Z,94930.67
2023-01-19T05:54:54.516Z,94931.88
2023-01-19T05:57:22.283Z,94931.60
2023-01-19T05:59:49.416Z,94932.48
2023-01-19T06:02:16.647Z,94927.16
2023-01-19T06:04:44.278Z,94924.13
2023-01-19T06:07:11.311Z,94924.05
2023-01-19T06:09:38.294Z,94922.33
2023-01-19T06:12:05.724Z,94925.84
2023-01-19T06:14:32.656Z,94921.27
2023-01-19T06:16:59.592Z,94917.09
2023-01-19T06:19:26.729Z,94921.58
2023-01-19T06:21:53.659Z,94916.28
2023-01-19T06:24:20.851Z,94910.79
2023-01-19T06:26:47.796Z,94915.34
2023-01-19T06:29:14.921Z,94923.48
2023-01-19T06:31:42.610Z,94930.34
2023-01-19T06:34:10.006Z,94936.50
2023-01-19T06:36:37.035Z,94932.02
2023-01-19T06:39:05.473Z,94915.90
2023-01-19T06:41:33.789Z,94904.80
2023-01-19T06:44:01.212Z,94908.06
2023-01-19T06:46:31.408Z,94911.40
2023-01-19T06:48:58.378Z,94912.50
2023-01-19T06:51:25.436Z,94911.82
2023-01-19T06:53:52.895Z,94913.89
2023-01-19T06:56:22.745Z,94924.84
2023-01-19T06:58:53.716Z,94909.45
2023-01-19T07:01:20.783Z,94909.20
2023-01-19T07:03:48.083Z,94914.91
2023-01-19T07:06:15.149Z,94916.83
2023-01-19T07:08:42.184Z,94911.39
2023-01-19T07:11:26.649Z,94912.27
2023-01-19T07:13:58.547Z,94903.89
2023-01-19T07:16:26.146Z,94904.89
2023-01-19T07:18:53.117Z,94903.19
2023-01-19T07:21:20.496Z,94884.67
2023-01-19T07:23:51.856Z,94893.45
2023-01-19T07:26:20.694Z,94905.98
2023-01-19T07:28:48.585Z,94912.14
2023-01-19T07:31:16.551Z,94924.69
2023-01-19T07:33:44.364Z,94920.17
2023-01-19T07:36:11.684Z,94909.77
2023-01-19T07:38:39.087Z,94913.25
2023-01-19T07:41:09.132Z,94912.60
2023-01-19T07:43:36.195Z,94910.00
2023-01-19T07:46:05.630Z,94906.58
2023-01-19T07:48:32.903Z,94911.10
2023-01-19T07:51:01.526Z,94908.70
2023-01-19T07:53:28.506Z,94911.92
2023-01-19T07:55:56.253Z,94922.34
2023-01-19T07:58:24.859Z,94933.29
2023-01-19T08:00:52.348Z,94935.29
2023-01-19T08:03:19.739Z,94937.92
2023-01-19T08:05:51.333Z,94938.70
2023-01-19T08:08:18.908Z,94936.89
2023-01-19T08:10:49.723Z,94935.96
2023-01-19T08:13:16.767Z,94929.80
2023-01-19T08:15:44.055Z,94926.66
2023-01-19T08:18:11.147Z,94924.15
2023-01-19T08:20:38.346Z,94914.01
2023-01-19T08:23:05.315Z,94915.58
2023-01-19T08:25:44.542Z,94927.65
2023-01-19T08:28:14.127Z,94921.14
2023-01-19T08:30:43.738Z,94917.64
2023-01-19T08:33:12.261Z,94919.22
2023-01-19T08:35:41.658Z,94915.02
2023-01-19T08:38:09.828Z,94915.80
2023-01-19T08:40:39.003Z,94913.11
2023-01-19T08:43:14.988Z,94909.94
2023-01-19T08:45:48.529Z,94907.14
2023-01-19T08:48:18.061Z,94907.77
2023-01-19T08:50:46.789Z,94909.44
2023-01-19T08:53:14.669Z,94907.05
2023-01-19T08:55:41.757Z,94904.95
2023-01-19T08:58:09.105Z,94901.77
2023-01-19T09:00:37.819Z,94903.66
2023-01-19T09:03:06.707Z,94904.48
2023-01-19T09:05:36.859Z,94897.27
2023-01-19T09:08:13.874Z,94894.65
2023-01-19T09:10:49.799Z,94893.98
2023-01-19T09:13:18.308Z,94906.95
2023-01-19T09:15:45.793Z,94907.71
2023-01-19T09:18:16.472Z,94897.76
2023-01-19T09:20:45.442Z,94892.08
2023-01-19T09:23:14.785Z,94885.34
2023-01-19T09:25:43.506Z,94882.92
2023-01-19T09:28:12.432Z,94889.45
2023-01-19T09:30:40.929Z,94894.75
2023-01-19T09:33:10.632Z,94899.59
2023-01-19T09:35:38.996Z,94896.04
2023-01-19T09:38:08.331Z,94892.91
2023-01-19T09:41:12.120Z,94897.73
2023-01-19T09:43:45.112Z,94904.35
2023-01-19T09:46:21.837Z,94908.86
2023-01-19T09:48:54.010Z,94907.35
2023-01-19T09:51:32.086Z,94908.12
2023-01-19T09:54:28.659Z,94900.38
2023-01-19T09:56:55.765Z,94887.17
2023-01-19T09:59:36.629Z,94874.91
2023-01-19T10:02:22.179Z,94875.52
2023-01-19T10:04:52.532Z,94870.54
2023-01-19T10:08:07.889Z,94868.30
2023-01-19T10:10:37.173Z,94871.59
2023-01-19T10:13:13.768Z,94871.66
2023-01-19T10:16:09.963Z,94881.46
2023-01-19T10:18:47.379Z,94879.79
2023-01-19T10:21:19.204Z,94877.14
2023-01-19T10:23:55.398Z,94878.67
2023-01-19T10:26:33.464Z,94875.08
2023-01-19T10:29:37.156Z,94875.20
2023-01-19T10:32:19.369Z,94863.98
2023-01-19T10:34:48.522Z,94859.09
2023-01-19T10:37:27.454Z,94866.14
2023-01-19T10:40:01.899Z,94859.28
2023-01-19T10:42:30.384Z,94864.71
2023-01-19T10:44:57.497Z,94860.71
2023-01-19T10:47:33.033Z,94856.50
2023-01-19T10:50:06.232Z,94861.65
2023-01-19T10:52:36.780Z,94868.45
2023-01-19T10:55:06.886Z,94866.55
2023-01-19T10:57:37.769Z,94866.59
2023-01-19T11:00:07.417Z,94866.33
2023-01-19T11:02:34.502Z,94872.11
2023-01-19T11:05:23.113Z,94877.70
2023-01-19T11:07:50.392Z,94877.16
2023-01-19T11:10:17.961Z,94877.23
2023-01-19T11:13:23.505Z,94870.96
2023-01-19T11:15:56.882Z,94871.83
2023-01-19T11:18:29.959Z,94867.30
2023-01-19T11:21:16.688Z,94872.52
2023-01-19T11:23:52.134Z,94863.37
2023-01-19T11:26:47.525Z,94869.30
2023-01-19T11:29:23.755Z,94870.50
2023-01-19T11:31:52.771Z,94870.69
2023-01-19T11:34:26.975Z,94867.54
2023-01-19T11:37:19.924Z,94864.20
2023-01-19T11:39:52.604Z,94853.86
2023-01-19T11:42:20.888Z,94862.58
2023-01-19T11:44:58.752Z,94862.61
2023-01-19T11:47:42.617Z,94863.83
2023-01-19T11:50:09.539Z,94865.73
2023-01-19T11:52:57.276Z,94861.23
2023-01-19T11:55:36.380Z,94869.54
2023-01-19T11:58:04.896Z,94874.13
2023-01-19T12:00:37.861Z,94871.32
2023-01-19T12:03:45.968Z,94868.89
2023-01-19T12:06:22.151Z,94881.95
2023-01-19T12:09:08.996Z,94889.15
2023-01-19T12:12:05.838Z,94881.34
2023-01-19T12:15:04.635Z,94893.98
2023-01-19T12:17:45.490Z,94900.63
2023-01-19T12:20:21.412Z,94896.13
2023-01-19T12:22:59.579Z,94900.86
2023-01-19T12:25:52.718Z,94892.16
2023-01-19T12:28:28.298Z,94895.95
2023-01-19T12:30:56.652Z,94901.39
2023-01-19T12:33:37.189Z,94908.58
2023-01-19T12:36:06.484Z,94909.02
2023-01-19T12:38:36.239Z,94910.80
2023-01-19T12:41:23.832Z,94917.10
2023-01-19T12:44:09.249Z,94919.00
2023-01-19T12:47:05.789Z,94916.81
2023-01-19T12:50:16.509Z,94930.38
2023-01-19T12:52:56.362Z,94937.27
2023-01-19T12:55:30.565Z,94941.96
2023-01-19T12:58:02.470Z,94938.77
2023-01-19T13:00:33.092Z,94947.27
2023-01-19T13:03:16.882Z,94944.86
2023-01-19T13:05:43.828Z,94949.22
2023-01-19T13:08:13.552Z,94964.69
2023-01-19T13:11:01.870Z,94968.77
2023-01-19T13:13:30.072Z,94961.07
2023-01-19T13:16:19.631Z,94946.98
2023-01-19T13:18:48.612Z,94931.50
2023-01-19T13:21:40.253Z,94923.04
2023-01-19T13:24:09.989Z,94938.39
2023-01-19T13:26:40.935Z,94941.97
2023-01-19T13:29:07.933Z,94944.93
2023-01-19T13:31:37.969Z,94949.89
2023-01-19T13:34:12.900Z,94948.82
2023-01-19T13:36:44.739Z,94947.23
2023-01-19T13:39:25.194Z,94937.51
2023-01-19T13:41:55.133Z,94935.61
2023-01-19T13:44:34.559Z,94952.13
2023-01-19T13:47:03.975Z,94956.33
2023-01-19T13:49:38.574Z,94954.60
2023-01-19T13:52:16.396Z,94959.20
2023-01-19T13:54:48.590Z,94953.73
2023-01-19T13:57:27.758Z,94957.89
2023-01-19T14:00:13.808Z,94959.83
2023-01-19T14:02:51.132Z,94966.81
2023-01-19T14:05:34.905Z,94959.12
2023-01-19T14:08:07.923Z,94970.64
2023-01-19T14:10:36.181Z,94972.77
2023-01-19T14:13:26.083Z,94983.76
2023-01-19T14:15:55.960Z,94993.17
2023-01-19T14:18:29.625Z,94991.60
2023-01-19T14:20:56.563Z,94996.19
2023-01-19T14:23:51.444Z,94992.68
2023-01-19T14:26:36.829Z,95000.82
2023-01-19T14:29:09.548Z,94999.55
2023-01-19T14:31:59.515Z,95004.46
2023-01-19T14:34:44.386Z,95011.34
2023-01-19T14:37:22.260Z,95008.20
2023-01-19T14:40:04.204Z,95004.38
2023-01-19T14:42:38.201Z,95009.27
2023-01-19T14:45:17.603Z,95011.56
2023-01-19T14:47:52.545Z,95010.45
2023-01-19T14:50:33.696Z,95009.38
2023-01-19T14:53:04.057Z,95009.59
2023-01-19T14:55:39.698Z,95002.05
2023-01-19T14:58:11.235Z,95004.52
2023-01-19T15:00:39.336Z,94992.04
2023-01-19T15:03:06.854Z,94993.02
2023-01-19T15:05:33.777Z,94997.76
2023-01-19T15:08:02.986Z,95010.73
2023-01-19T15:10:30.716Z,95014.00
2023-01-19T15:12:57.745Z,95019.89
2023-01-19T15:15:33.821Z,95011.29
2023-01-19T15:18:02.820Z,95015.95
2023-01-19T15:20:29.952Z,95022.45
2023-01-19T15:22:57.040Z,95023.54
2023-01-19T15:25:25.537Z,95024.61
2023-01-19T15:27:55.961Z,95031.38
2023-01-19T15:30:30.292Z,95028.87
2023-01-19T15:32:58.409Z,95033.02
2023-01-19T15:35:26.023Z,95038.94
2023-01-19T15:37:53.026Z,95041.52
2023-01-19T15:40:22.384Z,95045.02
2023-01-19T15:42:50.166Z,95050.58
2023-01-19T15:45:41.854Z,95058.46
2023-01-19T15:48:10.853Z,95066.20
2023-01-19T15:50:40.912Z,95077.56
2023-01-19T15:53:13.240Z,95086.39
2023-01-19T15:55:40.184Z,95084.66
2023-01-19T15:58:08.646Z,95099.51
2023-01-19T16:00:36.075Z,95104.71
2023-01-19T16:03:03.436Z,95106.14
2023-01-19T16:05:42.637Z,95105.70
2023-01-19T16:08:11.213Z,95113.08
2023-01-19T16:10:39.349Z,95117.41
2023-01-19T16:13:06.830Z,95126.31
2023-01-19T16:15:35.913Z,95133.44
2023-01-19T16:18:04.382Z,95139.33
2023-01-19T16:20:31.648Z,95151.68
2023-01-19T16:23:09.647Z,95148.77
2023-01-19T16:25:41.121Z,95155.65
2023-01-19T16:28:08.532Z,95163.92
2023-01-19T16:30:35.582Z,95169.16
2023-01-19T16:33:02.634Z,95170.23
2023-01-19T16:35:29.607Z,95180.23
2023-01-19T16:37:56.551Z,95182.13
2023-01-19T16:40:23.520Z,95182.84
2023-01-19T16:42:50.582Z,95187.63
2023-01-19T16:45:17.660Z,95186.66
2023-01-19T16:47:49.854Z,95164.83
2023-01-19T16:50:16.813Z,95143.09
2023-01-19T16:52:44.259Z,95156.79
2023-01-19T16:55:11.718Z,95164.54
2023-01-19T16:57:38.747Z,95144.70
2023-01-19T17:00:09.769Z,95125.36
2023-01-19T17:02:37.075Z,95118.15
2023-01-19T17:05:04.405Z,95124.05
2023-01-19T17:07:31.364Z,95133.25
2023-01-19T17:09:58.475Z,95144.10
2023-01-19T17:12:25.833Z,95160.16
2023-01-19T17:14:52.928Z,95157.98
2023-01-19T17:17:19.903Z,95171.01
2023-01-19T17:19:46.901Z,95173.95
2023-01-19T17:22:14.514Z,95177.90
2023-01-19T17:24:42.703Z,95180.71
2023-01-19T17:27:09.782Z,95176.98
2023-01-19T17:29:36.717Z,95174.13
2023-01-19T17:32:04.055Z,95183.18
2023-01-19T17:34:31.473Z,95186.91
2023-01-19T17:37:02.319Z,95191.23
2023-01-19T17:39:29.204Z,95189.19
2023-01-19T17:41:56.281Z,95207.29
2023-01-19T17:44:23.351Z,95214.92
2023-01-19T17:46:50.401Z,95214.88
2023-01-19T17:49:17.476Z,95210.53
2023-01-19T17:51:44.466Z,95207.67
2023-01-19T17:54:11.923Z,95219.13
2023-01-19T17:56:40.650Z,95229.95
2023-01-19T17:59:08.203Z,95239.94
2023-01-19T18:01:39.132Z,95231.20
2023-01-19T18:04:07.165Z,95230.06
2023-01-19T18:06:34.435Z,95235.10
2023-01-19T18:09:02.552Z,95242.31
2023-01-19T18:11:30.245Z,95244.64
2023-01-19T18:13:57.929Z,95246.16
2023-01-19T18:16:27.325Z,95251.96
2023-01-19T18:18:55.952Z,95255.89
2023-01-19T18:21:24.541Z,95266.30
2023-01-19T18:23:51.630Z,95267.44
2023-01-19T18:26:20.882Z,95268.92
2023-01-19T18:28:48.592Z,95268.58
2023-01-19T18:31:17.614Z,95265.23
2023-01-19T18:33:45.124Z,95269.40
2023-01-19T18:36:12.915Z,95278.88
2023-01-19T18:38:40.500Z,95287.99
2023-01-19T18:41:11.723Z,95291.09
2023-01-19T18:43:38.771Z,95295.70
2023-01-19T18:46:06.826Z,95302.94
2023-01-19T18:48:33.965Z,95309.91
2023-01-19T18:51:05.753Z,95312.25
2023-01-19T18:53:32.882Z,95311.87
2023-01-19T18:56:04.111Z,95308.86
2023-01-19T18:58:32.685Z,95310.80
2023-01-19T19:01:01.113Z,95310.81
2023-01-19T19:03:28.597Z,95302.38
2023-01-19T19:05:55.808Z,95303.73
2023-01-19T19:08:22.924Z,95306.20
2023-01-19T19:10:49.876Z,95311.13
2023-01-19T19:13:17.193Z,95306.69
2023-01-19T19:15:44.280Z,95310.14
2023-01-19T19:18:13.175Z,95303.77
2023-01-19T19:20:41.475Z,95291.23
2023-01-19T19:23:09.314Z,95280.20
2023-01-19T19:25:36.432Z,95277.88
2023-01-19T19:28:04.079Z,95277.85
2023-01-19T19:30:33.776Z,95274.39
2023-01-19T19:33:01.007Z,95283.48
2023-01-19T19:35:28.121Z,95286.87
2023-01-19T19:37:56.824Z,95287.02
2023-01-19T19:40:28.049Z,95292.33
2023-01-19T19:42:56.977Z,95292.04
2023-01-19T19:45:25.655Z,95295.91
2023-01-19T19:47:52.601Z,95296.13
2023-01-19T19:50:19.641Z,95297.05
2023-01-19T19:52:46.622Z,95301.42
2023-01-19T19:55:13.682Z,95303.32
2023-01-19T19:57:40.678Z,95297.90
2023-01-19T20:00:08.247Z,95299.29
2023-01-19T20:02:37.802Z,95299.02
2023-01-19T20:05:05.385Z,95300.45
2023-01-19T20:07:32.405Z,95298.36
2023-01-19T20:09:59.398Z,95294.92
2023-01-19T20:12:26.920Z,95297.30
2023-01-19T20:14:53.851Z,95297.83
2023-01-19T20:17:20.942Z,95295.00
2023-01-19T20:19:48.394Z,95296.17
2023-01-19T20:22:15.492Z,95293.72
2023-01-19T20:24:42.575Z,95300.13
2023-01-19T20:27:09.652Z,95309.11
2023-01-19T20:29:36.613Z,95311.80
2023-01-19T20:32:03.694Z,95314.29
2023-01-19T20:34:33.455Z,95316.81
2023-01-19T20:37:01.957Z,95325.14
2023-01-19T20:39:32.549Z,95325.85
2023-01-19T20:42:00.542Z,95332.02
2023-01-19T20:44:28.112Z,95342.88
2023-01-19T20:46:55.265Z,95345.19
2023-01-19T20:49:23.026Z,95354.66
2023-01-19T20:51:51.406Z,95356.70
2023-01-19T20:54:21.777Z,95354.09
2023-01-19T20:56:48.908Z,95353.02
2023-01-19T20:59:16.520Z,95353.20
2023-01-19T21:01:44.220Z,95360.90
2023-01-19T21:04:12.057Z,95361.49
2023-01-19T21:06:39.056Z,95361.27
2023-01-19T21:09:06.844Z,95362.58
2023-01-19T21:11:34.615Z,95364.80
2023-01-19T21:14:02.146Z,95359.41
2023-01-19T21:16:32.958Z,95350.21
2023-01-19T21:19:00.018Z,95348.90
2023-01-19T21:21:31.672Z,95353.07
2023-01-19T21:24:00.810Z,95356.84
2023-01-19T21:26:32.676Z,95358.41
2023-01-19T21:29:01.373Z,95362.67
2023-01-19T21:31:28.894Z,95359.46
2023-01-19T21:33:57.248Z,95355.89
2023-01-19T21:36:24.794Z,95369.02
2023-01-19T21:38:52.200Z,95384.02
2023-01-19T21:41:19.852Z,95390.77
2023-01-19T21:43:46.888Z,95386.65
2023-01-19T21:46:33.483Z,95381.20
2023-01-19T21:49:03.416Z,95380.58
2023-01-19T21:51:33.003Z,95383.55
2023-01-19T21:54:03.915Z,95383.90
2023-01-19T21:56:31.121Z,95382.39
2023-01-19T21:59:01.679Z,95383.10
2023-01-19T22:01:29.308Z,95392.50
2023-01-19T22:03:57.655Z,95400.52
2023-01-19T22:06:26.382Z,95399.83
2023-01-19T22:08:54.418Z,95390.84
2023-01-19T22:11:21.777Z,95383.34
2023-01-19T22:13:49.031Z,95372.70
2023-01-19T22:16:18.968Z,95373.14
2023-01-19T22:18:50.597Z,95368.36
2023-01-19T22:21:20.681Z,95366.70
2023-01-19T22:23:49.628Z,95368.91
2023-01-19T22:26:16.835Z,95366.97
2023-01-19T22:28:43.977Z,95363.42
2023-01-19T22:31:16.441Z,95364.17
2023-01-19T22:33:44.093Z,95362.80
2023-01-19T22:36:22.618Z,95360.88
2023-01-19T22:38:57.883Z,95359.06
2023-01-19T22:41:30.899Z,95358.83
2023-01-19T22:44:03.400Z,95355.86
2023-01-19T22:46:32.710Z,95354.86
2023-01-19T22:49:00.138Z,95351.70
2023-01-19T22:51:28.970Z,95350.08
2023-01-19T22:53:56.608Z,95338.80
2023-01-19T22:56:26.685Z,95333.92
2023-01-19T22:58:54.041Z,95333.90
2023-01-19T23:01:23.684Z,95339.64
2023-01-19T23:03:51.003Z,95343.91
2023-01-19T23:06:24.370Z,95352.77
2023-01-19T23:08:51.885Z,95357.31
2023-01-19T23:11:27.726Z,95365.98
2023-01-19T23:13:55.209Z,95373.45
2023-01-19T23:16:22.344Z,95372.66
2023-01-19T23:18:52.786Z,95361.34
2023-01-19T23:21:21.282Z,95359.31
2023-01-19T23:23:48.399Z,95365.00
2023-01-19T23:26:19.211Z,95359.38
2023-01-19T23:28:46.732Z,95354.50
2023-01-19T23:31:22.259Z,95349.54
2023-01-19T23:33:55.016Z,95354.44
2023-01-19T23:36:23.916Z,95348.08
2023-01-19T23:38:53.749Z,95332.96
2023-01-19T23:41:22.326Z,95332.46
2023-01-19T23:43:49.643Z,95343.27
2023-01-19T23:46:18.095Z,95352.66
2023-01-19T23:48:45.723Z,95355.14
2023-01-19T23:51:22.830Z,95356.98
2023-01-19T23:53:50.743Z,95348.83
2023-01-19T23:56:29.696Z,95349.23
2023-01-19T23:59:01.155Z,95349.52
